sensor_id;sensor_type;location;lat;lon;timestamp;pressure;altitude;pressure_sealevel;temperature;humidity
11487;BME280;10510;47.942;9.442;2023-04-28T00:00:38;94462.22;;;8.83;100.00
11487;BME280;10510;47.942;9.442;2023-04-28T00:02:38;94455.06;;;8.85;100.00
11487;BME280;10510;47.942;9.442;2023-04-28T00:04:39;94460.88;;;8.87;100.00
11487;BME280;10510;47.942;9.442;2023-04-28T00:06:39;94460.72;;;8.89;100.00
11487;BME280;10510;47.942;9.442;2023-04-28T00:08:40;94456.47;;;8.88;100.00
11487;BME280;10510;47.942;9.442;2023-04-28T00:10:40;94456.47;;;8.88;100.00
11487;BME280;10510;47.942;9.442;2023-04-28T00:12:40;94456.81;;;8.85;100.00
11487;BME280;10510;47.942;9.442;2023-04-28T00:14:41;94456.56;;;8.80;100.00
11487;BME280;10510;47.942;9.442;2023-04-28T00:16:41;94442.25;;;8.76;100.00
11487;BME280;10510;47.942;9.442;2023-04-28T00:18:41;94443.25;;;8.75;100.00
11487;BME280;10510;47.942;9.442;2023-04-28T00:20:41;94441.28;;;8.77;100.00
11487;BME280;10510;47.942;9.442;2023-04-28T00:22:42;94438.50;;;8.78;100.00
11487;BME280;10510;47.942;9.442;2023-04-28T00:24:42;94445.31;;;8.79;100.00
11487;BME280;10510;47.942;9.442;2023-04-28T00:26:42;94445.94;;;8.81;100.00
11487;BME280;10510;47.942;9.442;2023-04-28T00:28:42;94450.81;;;8.84;100.00
11487;BME280;10510;47.942;9.442;2023-04-28T00:30:43;94444.44;;;8.87;100.00
11487;BME280;10510;47.942;9.442;2023-04-28T00:32:43;94443.09;;;8.91;100.00
11487;BME280;10510;47.942;9.442;2023-04-28T00:34:43;94447.97;;;8.94;100.00
11487;BME280;10510;47.942;9.442;2023-04-28T00:36:43;94448.41;;;8.98;100.00
11487;BME280;10510;47.942;9.442;2023-04-28T00:38:44;94440.75;;;8.96;100.00
11487;BME280;10510;47.942;9.442;2023-04-28T00:40:44;94437.19;;;8.97;100.00
11487;BME280;10510;47.942;9.442;2023-04-28T00:42:44;94433.59;;;8.98;100.00
11487;BME280;10510;47.942;9.442;2023-04-28T00:44:45;94431.63;;;9.00;100.00
11487;BME280;10510;47.942;9.442;2023-04-28T00:46:45;94428.66;;;9.03;100.00
11487;BME280;10510;47.942;9.442;2023-04-28T00:48:47;94437.44;;;9.02;100.00
11487;BME280;10510;47.942;9.442;2023-04-28T00:50:48;94439.44;;;9.00;100.00
11487;BME280;10510;47.942;9.442;2023-04-28T00:52:49;94436.00;;;9.00;100.00
11487;BME280;10510;47.942;9.442;2023-04-28T00:54:50;94430.78;;;9.00;100.00
11487;BME280;10510;47.942;9.442;2023-04-28T00:56:50;94426.41;;;9.00;100.00
11487;BME280;10510;47.942;9.442;2023-04-28T00:58:50;94428.00;;;9.01;100.00
11487;BME280;10510;47.942;9.442;2023-04-28T01:00:51;94434.03;;;9.02;100.00
11487;BME280;10510;47.942;9.442;2023-04-28T01:02:52;94428.81;;;9.02;100.00
11487;BME280;10510;47.942;9.442;2023-04-28T01:04:53;94425.41;;;9.01;100.00
11487;BME280;10510;47.942;9.442;2023-04-28T01:06:55;94430.41;;;9.03;100.00
11487;BME280;10510;47.942;9.442;2023-04-28T01:08:55;94417.59;;;9.01;100.00
11487;BME280;10510;47.942;9.442;2023-04-28T01:10:56;94422.00;;;9.01;100.00
11487;BME280;10510;47.942;9.442;2023-04-28T01:12:56;94413.38;;;9.00;100.00
11487;BME280;10510;47.942;9.442;2023-04-28T01:14:56;94408.75;;;9.02;100.00
11487;BME280;10510;47.942;9.442;2023-04-28T01:16:57;94405.19;;;9.03;100.00
11487;BME280;10510;47.942;9.442;2023-04-28T01:18:59;94407.44;;;9.06;100.00
11487;BME280;10510;47.942;9.442;2023-04-28T01:20:59;94396.00;;;9.07;100.00
11487;BME280;10510;47.942;9.442;2023-04-28T01:22:59;94400.41;;;9.07;100.00
11487;BME280;10510;47.942;9.442;2023-04-28T01:25:00;94397.38;;;9.03;100.00
11487;BME280;10510;47.942;9.442;2023-04-28T01:27:03;94393.75;;;9.04;100.00
11487;BME280;10510;47.942;9.442;2023-04-28T01:29:03;94396.22;;;9.06;100.00
11487;BME280;10510;47.942;9.442;2023-04-28T01:31:03;94391.78;;;9.06;100.00
11487;BME280;10510;47.942;9.442;2023-04-28T01:33:03;94390.81;;;9.07;100.00
11487;BME280;10510;47.942;9.442;2023-04-28T01:35:04;94387.03;;;9.10;100.00
11487;BME280;10510;47.942;9.442;2023-04-28T01:37:04;94397.25;;;9.12;100.00
11487;BME280;10510;47.942;9.442;2023-04-28T01:39:05;94398.25;;;9.10;100.00
11487;BME280;10510;47.942;9.442;2023-04-28T01:41:05;94399.25;;;9.09;100.00
11487;BME280;10510;47.942;9.442;2023-04-28T01:43:06;94400.41;;;9.07;100.00
11487;BME280;10510;47.942;9.442;2023-04-28T01:45:06;94400.41;;;9.07;100.00
11487;BME280;10510;47.942;9.442;2023-04-28T01:47:07;94397.81;;;9.07;100.00
11487;BME280;10510;47.942;9.442;2023-04-28T01:49:07;94401.22;;;9.07;100.00
11487;BME280;10510;47.942;9.442;2023-04-28T01:51:07;94405.63;;;9.07;100.00
11487;BME280;10510;47.942;9.442;2023-04-28T01:53:08;94407.44;;;9.06;100.00
11487;BME280;10510;47.942;9.442;2023-04-28T01:55:08;94411.84;;;9.06;100.00
11487;BME280;10510;47.942;9.442;2023-04-28T01:57:08;94410.03;;;9.06;100.00
11487;BME280;10510;47.942;9.442;2023-04-28T01:59:09;94399.97;;;9.03;100.00
11487;BME280;10510;47.942;9.442;2023-04-28T02:01:09;94399.97;;;9.03;100.00
11487;BME280;10510;47.942;9.442;2023-04-28T02:03:10;94399.97;;;9.03;100.00
11487;BME280;10510;47.942;9.442;2023-04-28T02:05:10;94401.59;;;9.04;100.00
11487;BME280;10510;47.942;9.442;2023-04-28T02:07:11;94398.81;;;9.06;100.00
11487;BME280;10510;47.942;9.442;2023-04-28T02:09:11;94394.03;;;9.09;100.00
11487;BME280;10510;47.942;9.442;2023-04-28T02:11:11;94396.66;;;9.09;100.00
11487;BME280;10510;47.942;9.442;2023-04-28T02:13:12;94397.25;;;9.12;100.00
11487;BME280;10510;47.942;9.442;2023-04-28T02:15:12;94389.28;;;9.13;100.00
11487;BME280;10510;47.942;9.442;2023-04-28T02:17:13;94391.69;;;9.15;100.00
11487;BME280;10510;47.942;9.442;2023-04-28T02:19:14;94387.31;;;9.15;100.00
11487;BME280;10510;47.942;9.442;2023-04-28T02:21:14;94388.09;;;9.16;100.00
11487;BME280;10510;47.942;9.442;2023-04-28T02:23:15;94388.75;;;9.18;100.00
11487;BME280;10510;47.942;9.442;2023-04-28T02:25:15;94394.13;;;9.16;100.00
11487;BME280;10510;47.942;9.442;2023-04-28T02:27:15;94391.88;;;9.13;100.00
11487;BME280;10510;47.942;9.442;2023-04-28T02:29:16;94395.66;;;9.10;100.00
11487;BME280;10510;47.942;9.442;2023-04-28T02:31:16;94396.00;;;9.07;100.00
11487;BME280;10510;47.942;9.442;2023-04-28T02:33:16;94394.75;;;9.03;100.00
11487;BME280;10510;47.942;9.442;2023-04-28T02:35:16;94396.09;;;8.99;100.00
11487;BME280;10510;47.942;9.442;2023-04-28T02:37:17;94396.91;;;9.00;100.00
11487;BME280;10510;47.942;9.442;2023-04-28T02:39:17;94396.91;;;9.00;100.00
11487;BME280;10510;47.942;9.442;2023-04-28T02:41:17;94395.72;;;9.02;100.00
11487;BME280;10510;47.942;9.442;2023-04-28T02:43:18;94394.13;;;9.01;100.00
11487;BME280;10510;47.942;9.442;2023-04-28T02:45:18;94397.38;;;9.03;100.00
11487;BME280;10510;47.942;9.442;2023-04-28T02:47:18;94398.34;;;9.02;100.00
11487;BME280;10510;47.942;9.442;2023-04-28T02:49:18;94401.31;;;8.99;100.00
11487;BME280;10510;47.942;9.442;2023-04-28T02:51:19;94408.50;;;8.97;100.00
11487;BME280;10510;47.942;9.442;2023-04-28T02:53:20;94409.03;;;8.93;100.00
11487;BME280;10510;47.942;9.442;2023-04-28T02:55:20;94404.19;;;8.90;100.00
11487;BME280;10510;47.942;9.442;2023-04-28T02:57:23;94411.19;;;8.89;100.00
11487;BME280;10510;47.942;9.442;2023-04-28T02:59:23;94405.34;;;8.87;100.00
11487;BME280;10510;47.942;9.442;2023-04-28T03:01:24;94414.16;;;8.86;100.00
11487;BME280;10510;47.942;9.442;2023-04-28T03:03:25;94411.09;;;8.82;100.00
11487;BME280;10510;47.942;9.442;2023-04-28T03:05:25;94416.47;;;8.81;100.00
11487;BME280;10510;47.942;9.442;2023-04-28T03:07:26;94423.66;;;8.79;100.00
11487;BME280;10510;47.942;9.442;2023-04-28T03:09:26;94424.47;;;8.79;100.00
11487;BME280;10510;47.942;9.442;2023-04-28T03:11:26;94423.66;;;8.79;100.00
11487;BME280;10510;47.942;9.442;2023-04-28T03:13:26;94426.91;;;8.81;100.00
11487;BME280;10510;47.942;9.442;2023-04-28T03:15:28;94429.34;;;8.82;100.00
11487;BME280;10510;47.942;9.442;2023-04-28T03:17:29;94420.53;;;8.83;100.00
11487;BME280;10510;47.942;9.442;2023-04-28T03:19:29;94429.16;;;8.84;100.00
11487;BME280;10510;47.942;9.442;2023-04-28T03:21:29;94429.16;;;8.84;100.00
11487;BME280;10510;47.942;9.442;2023-04-28T03:23:31;94437.63;;;8.86;100.00
11487;BME280;10510;47.942;9.442;2023-04-28T03:25:31;94433.22;;;8.86;100.00
11487;BME280;10510;47.942;9.442;2023-04-28T03:27:31;94431.41;;;8.87;100.00
11487;BME280;10510;47.942;9.442;2023-04-28T03:29:32;94435.63;;;8.88;100.00
11487;BME280;10510;47.942;9.442;2023-04-28T03:31:32;94424.22;;;8.89;100.00
11487;BME280;10510;47.942;9.442;2023-04-28T03:33:32;94423.06;;;8.92;100.00
11487;BME280;10510;47.942;9.442;2023-04-28T03:35:33;94424.69;;;8.93;100.00
11487;BME280;10510;47.942;9.442;2023-04-28T03:37:33;94422.72;;;8.95;100.00
11487;BME280;10510;47.942;9.442;2023-04-28T03:39:33;94423.88;;;8.92;100.00
11487;BME280;10510;47.942;9.442;2023-04-28T03:41:33;94423.88;;;8.92;100.00
11487;BME280;10510;47.942;9.442;2023-04-28T03:43:34;94418.66;;;8.92;100.00
11487;BME280;10510;47.942;9.442;2023-04-28T03:45:36;94419.47;;;8.93;100.00
11487;BME280;10510;47.942;9.442;2023-04-28T03:47:36;94413.44;;;8.92;100.00
11487;BME280;10510;47.942;9.442;2023-04-28T03:49:37;94414.09;;;8.94;100.00
11487;BME280;10510;47.942;9.442;2023-04-28T03:51:37;94418.31;;;8.95;100.00
11487;BME280;10510;47.942;9.442;2023-04-28T03:53:37;94417.94;;;8.98;100.00
11487;BME280;10510;47.942;9.442;2023-04-28T03:55:37;94421.19;;;9.00;100.00
11487;BME280;10510;47.942;9.442;2023-04-28T03:57:38;94417.59;;;9.01;100.00
11487;BME280;10510;47.942;9.442;2023-04-28T03:59:38;94414.63;;;9.04;100.00
11487;BME280;10510;47.942;9.442;2023-04-28T04:01:38;94410.03;;;9.06;100.00
11487;BME280;10510;47.942;9.442;2023-04-28T04:03:38;94409.84;;;9.08;100.00
11487;BME280;10510;47.942;9.442;2023-04-28T04:05:39;94414.09;;;9.09;100.00
11487;BME280;10510;47.942;9.442;2023-04-28T04:07:40;94411.28;;;9.10;100.00
11487;BME280;10510;47.942;9.442;2023-04-28T04:09:40;94404.13;;;9.13;100.00
11487;BME280;10510;47.942;9.442;2023-04-28T04:11:41;94409.59;;;9.18;100.00
11487;BME280;10510;47.942;9.442;2023-04-28T04:13:41;94416.44;;;9.19;100.00
11487;BME280;10510;47.942;9.442;2023-04-28T04:15:41;94411.00;;;9.20;100.00
11487;BME280;10510;47.942;9.442;2023-04-28T04:17:42;94412.47;;;9.23;100.00
11487;BME280;10510;47.942;9.442;2023-04-28T04:19:42;94418.94;;;9.27;100.00
11487;BME280;10510;47.942;9.442;2023-04-28T04:21:42;94412.56;;;9.29;100.00
11487;BME280;10510;47.942;9.442;2023-04-28T04:23:42;94413.97;;;9.32;100.00
11487;BME280;10510;47.942;9.442;2023-04-28T04:25:43;94414.63;;;9.34;100.00
11487;BME280;10510;47.942;9.442;2023-04-28T04:27:43;94412.00;;;9.34;100.00
11487;BME280;10510;47.942;9.442;2023-04-28T04:29:44;94411.66;;;9.37;100.00
11487;BME280;10510;47.942;9.442;2023-04-28T04:31:44;94420.09;;;9.39;100.00
11487;BME280;10510;47.942;9.442;2023-04-28T04:33:44;94417.31;;;9.41;100.00
11487;BME280;10510;47.942;9.442;2023-04-28T04:35:45;94415.34;;;9.43;100.00
11487;BME280;10510;47.942;9.442;2023-04-28T04:37:45;94406.34;;;9.45;100.00
11487;BME280;10510;47.942;9.442;2023-04-28T04:39:45;94415.78;;;9.46;100.00
11487;BME280;10510;47.942;9.442;2023-04-28T04:41:45;94398.16;;;9.48;100.00
11487;BME280;10510;47.942;9.442;2023-04-28T04:43:46;94407.41;;;9.51;100.00
11487;BME280;10510;47.942;9.442;2023-04-28T04:45:46;94403.63;;;9.53;100.00
11487;BME280;10510;47.942;9.442;2023-04-28T04:47:46;94400.84;;;9.55;100.00
11487;BME280;10510;47.942;9.442;2023-04-28T04:49:48;94412.72;;;9.58;100.00
11487;BME280;10510;47.942;9.442;2023-04-28T04:51:49;94413.72;;;9.57;100.00
11487;BME280;10510;47.942;9.442;2023-04-28T04:53:49;94401.28;;;9.59;100.00
11487;BME280;10510;47.942;9.442;2023-04-28T04:55:49;94394.44;;;9.58;100.00
11487;BME280;10510;47.942;9.442;2023-04-28T04:57:50;94400.47;;;9.58;100.00
11487;BME280;10510;47.942;9.442;2023-04-28T04:59:50;94396.06;;;9.59;100.00
11487;BME280;10510;47.942;9.442;2023-04-28T05:01:50;94391.84;;;9.58;100.00
11487;BME280;10510;47.942;9.442;2023-04-28T05:03:51;94395.09;;;9.60;100.00
11487;BME280;10510;47.942;9.442;2023-04-28T05:05:51;94391.66;;;9.59;100.00
11487;BME280;10510;47.942;9.442;2023-04-28T05:07:51;94388.22;;;9.59;100.00
11487;BME280;10510;47.942;9.442;2023-04-28T05:09:52;94388.06;;;9.60;100.00
11487;BME280;10510;47.942;9.442;2023-04-28T05:11:52;94382.19;;;9.58;100.00
11487;BME280;10510;47.942;9.442;2023-04-28T05:13:52;94377.19;;;9.57;100.00
11487;BME280;10510;47.942;9.442;2023-04-28T05:15:52;94379.00;;;9.56;100.00
11487;BME280;10510;47.942;9.442;2023-04-28T05:17:53;94389.22;;;9.58;100.00
11487;BME280;10510;47.942;9.442;2023-04-28T05:19:53;94385.81;;;9.57;100.00
11487;BME280;10510;47.942;9.442;2023-04-28T05:21:53;94381.22;;;9.59;100.00
11487;BME280;10510;47.942;9.442;2023-04-28T05:23:54;94384.66;;;9.60;100.00
11487;BME280;10510;47.942;9.442;2023-04-28T05:25:55;94384.44;;;9.61;100.00
11487;BME280;10510;47.942;9.442;2023-04-28T05:27:55;94383.28;;;9.64;100.00
11487;BME280;10510;47.942;9.442;2023-04-28T05:29:56;94381.09;;;9.67;100.00
11487;BME280;10510;47.942;9.442;2023-04-28T05:31:56;94384.53;;;9.68;100.00
11487;BME280;10510;47.942;9.442;2023-04-28T05:33:56;94386.16;;;9.69;100.00
11487;BME280;10510;47.942;9.442;2023-04-28T05:35:58;94378.31;;;9.69;100.00
11487;BME280;10510;47.942;9.442;2023-04-28T05:37:58;94385.78;;;9.72;100.00
11487;BME280;10510;47.942;9.442;2023-04-28T05:39:59;94379.56;;;9.73;100.00
11487;BME280;10510;47.942;9.442;2023-04-28T05:41:59;94376.78;;;9.74;100.00
11487;BME280;10510;47.942;9.442;2023-04-28T05:43:59;94376.56;;;9.76;100.00
11487;BME280;10510;47.942;9.442;2023-04-28T05:46:00;94378.22;;;9.77;100.00
11487;BME280;10510;47.942;9.442;2023-04-28T05:48:00;94372.00;;;9.78;100.00
11487;BME280;10510;47.942;9.442;2023-04-28T05:50:01;94381.44;;;9.79;100.00
11487;BME280;10510;47.942;9.442;2023-04-28T05:52:01;94384.88;;;9.80;100.00
11487;BME280;10510;47.942;9.442;2023-04-28T05:54:02;94379.66;;;9.80;100.00
11487;BME280;10510;47.942;9.442;2023-04-28T05:56:02;94380.47;;;9.80;100.00
11487;BME280;10510;47.942;9.442;2023-04-28T05:58:03;94376.03;;;9.81;100.00
11487;BME280;10510;47.942;9.442;2023-04-28T06:00:03;94372.63;;;9.80;100.00
11487;BME280;10510;47.942;9.442;2023-04-28T06:02:04;94366.41;;;9.81;100.00
11487;BME280;10510;47.942;9.442;2023-04-28T06:04:04;94374.22;;;9.81;100.00
11487;BME280;10510;47.942;9.442;2023-04-28T06:06:05;94375.03;;;9.82;100.00
11487;BME280;10510;47.942;9.442;2023-04-28T06:08:05;94377.47;;;9.83;100.00
11487;BME280;10510;47.942;9.442;2023-04-28T06:10:07;94376.69;;;9.83;100.00
11487;BME280;10510;47.942;9.442;2023-04-28T06:12:07;94381.69;;;9.84;100.00
11487;BME280;10510;47.942;9.442;2023-04-28T06:14:08;94372.84;;;9.85;100.00
11487;BME280;10510;47.942;9.442;2023-04-28T06:16:08;94372.84;;;9.85;100.00
11487;BME280;10510;47.942;9.442;2023-04-28T06:18:08;94385.75;;;9.87;100.00
11487;BME280;10510;47.942;9.442;2023-04-28T06:20:09;94387.19;;;9.89;100.00
11487;BME280;10510;47.942;9.442;2023-04-28T06:22:12;94382.59;;;9.91;100.00
11487;BME280;10510;47.942;9.442;2023-04-28T06:24:12;94384.19;;;9.92;100.00
11487;BME280;10510;47.942;9.442;2023-04-28T06:26:12;94385.00;;;9.93;100.00
11487;BME280;10510;47.942;9.442;2023-04-28T06:28:13;94385.81;;;9.93;100.00
11487;BME280;10510;47.942;9.442;2023-04-28T06:30:17;94393.84;;;9.92;100.00
11487;BME280;10510;47.942;9.442;2023-04-28T06:32:19;94395.44;;;9.93;100.00
11487;BME280;10510;47.942;9.442;2023-04-28T06:34:19;94389.59;;;9.91;100.00
11487;BME280;10510;47.942;9.442;2023-04-28T06:36:20;94397.25;;;9.92;100.00
11487;BME280;10510;47.942;9.442;2023-04-28T06:38:20;94378.97;;;9.92;100.00
11487;BME280;10510;47.942;9.442;2023-04-28T06:40:20;94384.81;;;9.94;100.00
11487;BME280;10510;47.942;9.442;2023-04-28T06:42:20;94378.59;;;9.95;100.00
11487;BME280;10510;47.942;9.442;2023-04-28T06:44:21;94381.66;;;9.99;100.00
11487;BME280;10510;47.942;9.442;2023-04-28T06:46:21;94386.31;;;10.04;100.00
11487;BME280;10510;47.942;9.442;2023-04-28T06:48:22;94388.34;;;10.08;100.00
11487;BME280;10510;47.942;9.442;2023-04-28T06:50:22;94391.44;;;10.12;100.00
11487;BME280;10510;47.942;9.442;2023-04-28T06:52:23;94387.81;;;10.13;100.00
11487;BME280;10510;47.942;9.442;2023-04-28T06:54:23;94390.06;;;10.16;100.00
11487;BME280;10510;47.942;9.442;2023-04-28T06:56:23;94388.06;;;10.18;100.00
11487;BME280;10510;47.942;9.442;2023-04-28T06:58:24;94391.91;;;10.22;100.00
11487;BME280;10510;47.942;9.442;2023-04-28T07:00:24;94386.53;;;10.23;100.00
11487;BME280;10510;47.942;9.442;2023-04-28T07:02:25;94385.31;;;10.26;100.00
11487;BME280;10510;47.942;9.442;2023-04-28T07:04:26;94374.88;;;10.26;100.00
11487;BME280;10510;47.942;9.442;2023-04-28T07:06:26;94381.75;;;10.27;100.00
11487;BME280;10510;47.942;9.442;2023-04-28T07:08:27;94380.09;;;10.26;100.00
11487;BME280;10510;47.942;9.442;2023-04-28T07:10:29;94377.69;;;10.24;100.00
11487;BME280;10510;47.942;9.442;2023-04-28T07:12:29;94370.50;;;10.27;100.00
11487;BME280;10510;47.942;9.442;2023-04-28T07:14:30;94373.34;;;10.32;100.00
11487;BME280;10510;47.942;9.442;2023-04-28T07:16:30;94375.78;;;10.33;100.00
11487;BME280;10510;47.942;9.442;2023-04-28T07:18:30;94378.41;;;10.33;100.00
11487;BME280;10510;47.942;9.442;2023-04-28T07:20:30;94378.19;;;10.35;100.00
11487;BME280;10510;47.942;9.442;2023-04-28T07:22:31;94374.22;;;10.39;100.00
11487;BME280;10510;47.942;9.442;2023-04-28T07:24:31;94373.03;;;10.41;100.00
11487;BME280;10510;47.942;9.442;2023-04-28T07:26:32;94357.59;;;10.46;100.00
11487;BME280;10510;47.942;9.442;2023-04-28T07:28:33;94365.50;;;10.53;100.00
11487;BME280;10510;47.942;9.442;2023-04-28T07:30:33;94362.06;;;10.53;100.00
11487;BME280;10510;47.942;9.442;2023-04-28T07:32:33;94370.72;;;10.53;100.00
11487;BME280;10510;47.942;9.442;2023-04-28T07:34:34;94368.13;;;10.53;100.00
11487;BME280;10510;47.942;9.442;2023-04-28T07:36:37;94359.66;;;10.51;100.00
11487;BME280;10510;47.942;9.442;2023-04-28T07:38:37;94369.28;;;10.51;100.00
11487;BME280;10510;47.942;9.442;2023-04-28T07:40:38;94363.44;;;10.49;100.00
11487;BME280;10510;47.942;9.442;2023-04-28T07:42:38;94365.44;;;10.46;100.00
11487;BME280;10510;47.942;9.442;2023-04-28T07:44:38;94361.03;;;10.47;100.00
11487;BME280;10510;47.942;9.442;2023-04-28T07:46:38;94365.03;;;10.50;100.00
11487;BME280;10510;47.942;9.442;2023-04-28T07:48:39;94355.06;;;10.53;100.00
11487;BME280;10510;47.942;9.442;2023-04-28T07:50:39;94362.69;;;10.55;100.00
11487;BME280;10510;47.942;9.442;2023-04-28T07:52:39;94366.09;;;10.55;100.00
11487;BME280;10510;47.942;9.442;2023-04-28T07:54:40;94379.16;;;10.55;100.00
11487;BME280;10510;47.942;9.442;2023-04-28T07:56:40;94373.34;;;10.53;100.00
11487;BME280;10510;47.942;9.442;2023-04-28T07:58:40;94384.59;;;10.54;100.00
11487;BME280;10510;47.942;9.442;2023-04-28T08:00:40;94378.38;;;10.55;100.00
11487;BME280;10510;47.942;9.442;2023-04-28T08:02:41;94387.81;;;10.56;100.00
11487;BME280;10510;47.942;9.442;2023-04-28T08:04:41;94395.66;;;10.56;100.00
11487;BME280;10510;47.942;9.442;2023-04-28T08:06:41;94401.88;;;10.55;100.00
11487;BME280;10510;47.942;9.442;2023-04-28T08:08:42;94398.47;;;10.54;100.00
11487;BME280;10510;47.942;9.442;2023-04-28T08:10:42;94400.06;;;10.55;100.00
11487;BME280;10510;47.942;9.442;2023-04-28T08:12:42;94401.06;;;10.54;100.00
11487;BME280;10510;47.942;9.442;2023-04-28T08:14:44;94399.25;;;10.55;100.00
11487;BME280;10510;47.942;9.442;2023-04-28T08:16:44;94380.81;;;10.56;100.00
11487;BME280;10510;47.942;9.442;2023-04-28T08:18:45;94382.56;;;10.56;100.00
11487;BME280;10510;47.942;9.442;2023-04-28T08:20:46;94374.75;;;10.56;100.00
11487;BME280;10510;47.942;9.442;2023-04-28T08:22:46;94377.34;;;10.56;100.00
11487;BME280;10510;47.942;9.442;2023-04-28T08:24:48;94375.75;;;10.55;100.00
11487;BME280;10510;47.942;9.442;2023-04-28T08:26:48;94373.34;;;10.53;100.00
11487;BME280;10510;47.942;9.442;2023-04-28T08:28:48;94384.59;;;10.54;100.00
11487;BME280;10510;47.942;9.442;2023-04-28T08:30:48;94380.56;;;10.51;100.00
11487;BME280;10510;47.942;9.442;2023-04-28T08:32:49;94387.59;;;10.51;100.00
11487;BME280;10510;47.942;9.442;2023-04-28T08:34:49;94388.38;;;10.51;100.00
11487;BME280;10510;47.942;9.442;2023-04-28T08:36:50;94392.81;;;10.51;100.00
11487;BME280;10510;47.942;9.442;2023-04-28T08:38:50;94394.25;;;10.53;100.00
11487;BME280;10510;47.942;9.442;2023-04-28T08:40:51;94391.25;;;10.56;100.00
11487;BME280;10510;47.942;9.442;2023-04-28T08:42:54;94386.44;;;10.60;100.00
11487;BME280;10510;47.942;9.442;2023-04-28T08:44:55;94395.72;;;10.62;100.00
11487;BME280;10510;47.942;9.442;2023-04-28T08:46:59;94390.91;;;10.66;100.00
11487;BME280;10510;47.942;9.442;2023-04-28T08:49:02;94396.78;;;10.68;100.00
11487;BME280;10510;47.942;9.442;2023-04-28T08:51:05;94403.59;;;10.69;100.00
11487;BME280;10510;47.942;9.442;2023-04-28T08:53:06;94415.66;;;10.70;100.00
11487;BME280;10510;47.942;9.442;2023-04-28T08:55:10;94421.13;;;10.75;100.00
11487;BME280;10510;47.942;9.442;2023-04-28T08:57:11;94412.28;;;10.76;100.00
11487;BME280;10510;47.942;9.442;2023-04-28T08:59:13;94418.16;;;10.78;100.00
11487;BME280;10510;47.942;9.442;2023-04-28T09:01:13;94421.00;;;10.83;100.00
11487;BME280;10510;47.942;9.442;2023-04-28T09:03:14;94413.22;;;10.90;100.00
11487;BME280;10510;47.942;9.442;2023-04-28T09:05:14;94415.06;;;10.96;100.00
11487;BME280;10510;47.942;9.442;2023-04-28T09:07:14;94422.56;;;11.06;100.00
11487;BME280;10510;47.942;9.442;2023-04-28T09:09:24;94424.22;;;11.13;100.00
11487;BME280;10510;47.942;9.442;2023-04-28T09:11:25;94427.88;;;11.19;100.00
11487;BME280;10510;47.942;9.442;2023-04-28T09:13:25;94424.72;;;11.24;100.00
11487;BME280;10510;47.942;9.442;2023-04-28T09:15:36;94424.50;;;11.25;100.00
11487;BME280;10510;47.942;9.442;2023-04-28T09:17:49;94431.13;;;11.21;100.00
11487;BME280;10510;47.942;9.442;2023-04-28T09:19:50;94427.13;;;11.25;100.00
11487;BME280;10510;47.942;9.442;2023-04-28T09:21:55;94429.75;;;11.32;100.00
11487;BME280;10510;47.942;9.442;2023-04-28T09:23:56;94417.13;;;11.35;100.00
11487;BME280;10510;47.942;9.442;2023-04-28T09:26:04;94427.38;;;11.37;100.00
11487;BME280;10510;47.942;9.442;2023-04-28T09:28:20;94427.63;;;11.42;100.00
11487;BME280;10510;47.942;9.442;2023-04-28T09:30:37;94432.47;;;11.45;100.00
11487;BME280;10510;47.942;9.442;2023-04-28T09:32:38;94432.09;;;11.48;100.00
11487;BME280;10510;47.942;9.442;2023-04-28T09:34:47;94426.03;;;11.48;100.00
11487;BME280;10510;47.942;9.442;2023-04-28T09:36:47;94426.84;;;11.48;100.00
11487;BME280;10510;47.942;9.442;2023-04-28T09:38:48;94427.84;;;11.47;100.00
11487;BME280;10510;47.942;9.442;2023-04-28T09:42:50;94451.81;;;11.51;100.00
11487;BME280;10510;47.942;9.442;2023-04-28T09:44:53;94451.44;;;11.54;100.00
11487;BME280;10510;47.942;9.442;2023-04-28T09:46:54;94446.19;;;11.54;100.00
11487;BME280;10510;47.942;9.442;2023-04-28T09:49:00;94445.19;;;11.55;100.00
11487;BME280;10510;47.942;9.442;2023-04-28T09:51:04;94456.84;;;11.52;100.00
11487;BME280;10510;47.942;9.442;2023-04-28T09:53:05;94453.81;;;11.49;100.00
11487;BME280;10510;47.942;9.442;2023-04-28T09:55:06;94458.63;;;11.45;100.00
11487;BME280;10510;47.942;9.442;2023-04-28T09:57:11;94464.03;;;11.44;100.00
11487;BME280;10510;47.942;9.442;2023-04-28T09:59:12;94456.59;;;11.41;100.00
11487;BME280;10510;47.942;9.442;2023-04-28T10:01:13;94460.59;;;11.36;100.00
11487;BME280;10510;47.942;9.442;2023-04-28T10:03:14;94464.63;;;11.39;100.00
11487;BME280;10510;47.942;9.442;2023-04-28T10:05:15;94467.03;;;11.41;100.00
11487;BME280;10510;47.942;9.442;2023-04-28T10:07:16;94469.88;;;11.39;100.00
11487;BME280;10510;47.942;9.442;2023-04-28T10:09:17;94464.63;;;11.39;100.00
11487;BME280;10510;47.942;9.442;2023-04-28T10:11:26;94468.25;;;11.38;100.00
11487;BME280;10510;47.942;9.442;2023-04-28T10:13:27;94466.25;;;11.40;100.00
11487;BME280;10510;47.942;9.442;2023-04-28T10:15:29;94450.38;;;11.42;100.00
11487;BME280;10510;47.942;9.442;2023-04-28T10:17:30;94456.03;;;11.45;100.00
11487;BME280;10510;47.942;9.442;2023-04-28T10:19:30;94448.97;;;11.46;100.00
11487;BME280;10510;47.942;9.442;2023-04-28T10:21:34;94444.75;;;11.45;100.00
11487;BME280;10510;47.942;9.442;2023-04-28T10:23:46;94448.34;;;11.44;100.00
11487;BME280;10510;47.942;9.442;2023-04-28T10:25:53;94440.31;;;11.45;100.00
11487;BME280;10510;47.942;9.442;2023-04-28T10:27:57;94433.69;;;11.49;100.00
11487;BME280;10510;47.942;9.442;2023-04-28T10:30:14;94426.06;;;11.54;100.00
11487;BME280;10510;47.942;9.442;2023-04-28T10:32:15;94419.03;;;11.55;100.00
11487;BME280;10510;47.942;9.442;2023-04-28T10:34:22;94419.03;;;11.55;100.00
11487;BME280;10510;47.942;9.442;2023-04-28T10:36:49;94425.09;;;11.62;100.00
11487;BME280;10510;47.942;9.442;2023-04-28T10:39:08;94421.72;;;11.68;100.00
11487;BME280;10510;47.942;9.442;2023-04-28T10:41:31;94419.28;;;11.73;100.00